Terminal Aerodrome Forecast
Issued by NWS Albany, NY

Home | Current Version | Previous Version | Text Only | Print | Product List | Glossary On
Versions: 1 2 3 4 5 6 7 8 9 10 11 12 13 14 15 16 17
000
FTUS41 KALY 212300 RRA
TAFGFL
TAF
KGFL 212341Z 2200/2224 24004KT P6SM SKC
     FM220600 VRB03KT P6SM SCT080
     FM221300 18006KT P6SM SCT120 BKN250
     FM221800 20008KT P6SM SCT060 BKN150
     FM222100 22006KT P6SM VCSH SCT035 OVC060=

USA.gov is the U.S. government's official web portal to all federal, state and local government web resources and services.